Time;durP1;ratioP1;P1;durP2;ratioP2;P2;SDS_P1;SDS_P2;PMS_P1;PMS_P2;Temp;Humidity;BMP_temperature;BMP_pressure;BME280_temperature;BME280_humidity;BME280_pressure;Samples;Min_cycle;Max_cycle;Signal;HPM_P1;HPM_P2
2021/08/10 00:01:22;;;;;;;0.60;0.40;;;20.50;66.60;;;;;;10499465;28;20213;-65
2021/08/10 00:06:44;;;;;;;1.00;0.50;;;20.50;66.20;;;;;;10530621;28;20188;-64
2021/08/10 00:12:08;;;;;;;1.03;0.50;;;20.60;65.80;;;;;;10547463;28;20726;-64
2021/08/10 00:17:30;;;;;;;0.73;0.60;;;20.50;66.70;;;;;;10578849;28;20407;-64
2021/08/10 00:22:53;;;;;;;0.75;0.60;;;21.10;64.20;;;;;;10537412;28;20429;-64
2021/08/10 00:28:16;;;;;;;0.47;0.40;;;20.90;64.40;;;;;;10499438;28;20216;-65
2021/08/10 00:33:39;;;;;;;0.80;0.60;;;20.70;65.70;;;;;;10539014;28;20223;-64
2021/08/10 00:39:01;;;;;;;0.80;0.70;;;20.60;66.20;;;;;;10510614;28;20219;-64
2021/08/10 00:44:25;;;;;;;0.87;0.67;;;20.60;65.60;;;;;;10498459;28;20414;-64
2021/08/10 00:49:47;;;;;;;0.70;0.60;;;21.10;64.30;;;;;;10500505;28;20837;-64
2021/08/10 00:55:10;;;;;;;0.60;0.57;;;20.80;66.30;;;;;;10500273;28;20192;-65
2021/08/10 01:00:34;;;;;;;0.67;0.57;;;20.60;65.50;;;;;;10497739;28;20213;-65
2021/08/10 01:05:57;;;;;;;0.73;0.63;;;20.60;65.90;;;;;;10561407;28;20712;-64
2021/08/10 01:11:27;;;;;;;0.60;0.57;;;20.50;66.60;;;;;;10572745;28;20702;-64
2021/08/10 01:16:56;;;;;;;0.50;0.50;;;20.50;66.00;;;;;;10509499;28;20655;-65
2021/08/10 01:22:21;;;;;;;0.40;0.40;;;20.60;65.50;;;;;;10523512;28;20194;-65
2021/08/10 01:27:57;;;;;;;0.60;0.50;;;20.50;66.60;;;;;;10507360;28;20218;-64
2021/08/10 01:33:22;;;;;;;1.17;0.60;;;20.50;66.30;;;;;;10519406;28;20235;-65
2021/08/10 01:38:49;;;;;;;0.40;0.40;;;20.50;65.50;;;;;;10511927;28;20571;-65
2021/08/10 01:44:12;;;;;;;0.53;0.50;;;20.50;66.40;;;;;;10499478;28;20189;-64
2021/08/10 01:49:37;;;;;;;0.50;0.50;;;20.50;66.60;;;;;;10518163;28;20228;-64
2021/08/10 01:55:00;;;;;;;0.60;0.50;;;20.50;65.80;;;;;;10502809;28;20202;-64
2021/08/10 02:00:22;;;;;;;0.53;0.53;;;20.50;66.70;;;;;;10561397;28;20214;-64
2021/08/10 02:05:47;;;;;;;0.60;0.50;;;20.50;66.70;;;;;;10574255;28;20674;-64
2021/08/10 02:11:10;;;;;;;0.80;0.60;;;20.50;65.70;;;;;;10574582;28;20577;-64
2021/08/10 02:16:33;;;;;;;0.60;0.60;;;20.50;66.70;;;;;;10574594;28;20578;-64
2021/08/10 02:22:04;;;;;;;0.70;0.70;;;20.50;66.70;;;;;;10560973;28;20222;-65
2021/08/10 02:27:35;;;;;;;1.03;0.60;;;20.50;65.90;;;;;;10573105;28;20731;-64
2021/08/10 02:32:59;;;;;;;0.60;0.50;;;20.50;66.70;;;;;;10523585;28;20216;-64
2021/08/10 02:38:25;;;;;;;0.60;0.53;;;20.50;66.80;;;;;;10546924;28;20215;-64
2021/08/10 02:43:47;;;;;;;0.90;0.77;;;20.50;65.80;;;;;;10571919;28;20708;-64
2021/08/10 02:49:10;;;;;;;0.53;0.50;;;20.50;66.60;;;;;;10566527;28;20218;-64
2021/08/10 02:54:34;;;;;;;1.37;0.60;;;20.50;66.90;;;;;;10492151;28;20215;-64
2021/08/10 03:00:01;;;;;;;0.97;0.70;;;20.50;65.90;;;;;;10534387;28;20259;-64
2021/08/10 03:05:24;;;;;;;1.30;0.70;;;20.50;66.60;;;;;;10526091;28;20203;-64
2021/08/10 03:10:51;;;;;;;1.00;0.70;;;20.50;66.90;;;;;;10558486;28;20219;-64
2021/08/10 03:16:15;;;;;;;0.60;0.60;;;20.50;66.10;;;;;;10528934;28;20218;-64
2021/08/10 03:21:39;;;;;;;0.60;0.60;;;20.50;66.60;;;;;;10498960;28;20659;-64
2021/08/10 03:27:05;;;;;;;1.10;0.60;;;20.40;66.90;;;;;;10495084;28;20199;-64
2021/08/10 03:32:27;;;;;;;0.60;0.60;;;20.50;66.20;;;;;;10502561;28;20635;-64
2021/08/10 03:37:50;;;;;;;0.70;0.70;;;20.50;66.10;;;;;;10513083;28;20213;-64
2021/08/10 03:43:14;;;;;;;0.40;0.40;;;20.50;66.90;;;;;;10495654;28;20197;-64
2021/08/10 03:48:42;;;;;;;1.00;0.80;;;20.40;66.20;;;;;;10529327;28;20800;-64
2021/08/10 03:54:06;;;;;;;0.77;0.70;;;20.60;66.10;;;;;;10515684;28;20211;-64
2021/08/10 03:59:31;;;;;;;0.97;0.70;;;20.50;66.70;;;;;;10509104;28;20219;-64
2021/08/10 04:04:56;;;;;;;0.63;0.50;;;20.50;66.00;;;;;;10503871;28;20188;-64
2021/08/10 04:10:18;;;;;;;0.73;0.70;;;20.50;66.70;;;;;;10500262;28;20957;-64
2021/08/10 04:15:45;;;;;;;0.53;0.53;;;20.90;65.60;;;;;;10494999;28;20570;-64
2021/08/10 04:21:07;;;;;;;0.60;0.60;;;20.70;65.30;;;;;;10547742;28;20216;-64
2021/08/10 04:26:29;;;;;;;1.43;0.87;;;20.60;66.00;;;;;;10565172;28;20700;-64
2021/08/10 04:31:53;;;;;;;0.60;0.60;;;20.50;66.70;;;;;;10540687;28;20224;-64
2021/08/10 04:37:16;;;;;;;0.60;0.60;;;20.60;66.00;;;;;;10521281;27;20204;-64
2021/08/10 04:42:38;;;;;;;0.80;0.75;;;20.50;66.80;;;;;;10496257;28;20510;-64
2021/08/10 04:48:01;;;;;;;1.03;0.93;;;21.00;64.90;;;;;;10506930;28;20702;-64
2021/08/10 04:53:23;;;;;;;0.93;0.70;;;20.80;64.90;;;;;;10526565;28;20220;-63
2021/08/10 04:58:46;;;;;;;1.00;0.87;;;20.60;66.20;;;;;;10528793;28;20224;-64
2021/08/10 05:04:09;;;;;;;0.67;0.57;;;20.60;66.60;;;;;;10541830;28;20591;-64
2021/08/10 05:09:32;;;;;;;0.60;0.60;;;20.60;65.80;;;;;;10519137;28;20707;-64
2021/08/10 05:14:55;;;;;;;0.87;0.83;;;20.50;66.70;;;;;;10514397;28;20575;-63
2021/08/10 05:20:18;;;;;;;0.97;0.80;;;20.50;66.70;;;;;;10532577;28;20212;-64
2021/08/10 05:25:40;;;;;;;0.90;0.80;;;20.50;66.30;;;;;;10514567;28;20228;-63
2021/08/10 05:31:03;;;;;;;0.93;0.70;;;20.50;67.20;;;;;;10537548;28;20216;-63
2021/08/10 05:36:26;;;;;;;1.60;0.80;;;20.50;66.60;;;;;;10498301;28;20199;-63
2021/08/10 05:41:48;;;;;;;1.42;0.80;;;20.50;66.40;;;;;;10502121;28;20946;-65
2021/08/10 05:47:11;;;;;;;1.73;0.80;;;20.50;67.00;;;;;;10502492;28;20198;-63
2021/08/10 05:52:34;;;;;;;1.13;0.80;;;20.50;66.40;;;;;;10535575;28;20440;-64
2021/08/10 05:57:56;;;;;;;0.73;0.70;;;20.60;66.10;;;;;;10534700;28;20741;-65
2021/08/10 06:03:19;;;;;;;1.00;0.80;;;20.50;66.70;;;;;;10540401;28;20196;-64
2021/08/10 06:08:42;;;;;;;0.70;0.70;;;20.50;66.30;;;;;;10536005;28;20219;-64
2021/08/10 06:14:05;;;;;;;1.30;1.00;;;20.50;66.70;;;;;;10533715;28;20195;-64
2021/08/10 06:19:27;;;;;;;0.97;0.80;;;20.50;67.10;;;;;;10514624;28;20220;-64
2021/08/10 06:24:51;;;;;;;1.63;0.97;;;20.50;66.10;;;;;;10518404;28;20196;-63
2021/08/10 06:30:14;;;;;;;1.20;0.97;;;20.50;66.30;;;;;;10494316;28;20225;-66
2021/08/10 06:35:36;;;;;;;1.53;0.97;;;20.50;67.00;;;;;;10493705;28;20274;-65
2021/08/10 06:41:00;;;;;;;1.03;0.93;;;20.50;66.00;;;;;;10493857;28;20498;-65
2021/08/10 06:46:24;;;;;;;1.93;0.80;;;20.50;66.50;;;;;;10501698;28;20188;-65
2021/08/10 06:51:46;;;;;;;1.13;1.00;;;20.50;67.00;;;;;;10534021;28;20223;-64
2021/08/10 06:57:10;;;;;;;1.27;1.03;;;20.50;66.10;;;;;;10526480;28;20694;-65
2021/08/10 07:02:32;;;;;;;1.13;1.03;;;20.60;65.80;;;;;;10493025;28;20196;-65
2021/08/10 07:07:54;;;;;;;1.17;1.00;;;20.50;66.70;;;;;;10486891;28;20216;-65
2021/08/10 07:13:18;;;;;;;1.83;1.27;;;20.50;66.50;;;;;;10492354;28;20226;-65
2021/08/10 07:18:40;;;;;;;1.40;1.00;;;20.50;65.50;;;;;;10527255;28;20219;-65
2021/08/10 07:24:03;;;;;;;1.10;1.00;;;20.50;66.50;;;;;;10520435;28;20204;-65
2021/08/10 07:29:26;;;;;;;1.10;1.00;;;20.40;66.60;;;;;;10486949;28;20235;-65
2021/08/10 07:34:49;;;;;;;2.03;1.20;;;20.50;65.70;;;;;;10500695;28;20220;-67
2021/08/10 07:40:13;;;;;;;11.00;2.00;;;20.50;65.50;;;;;;10533627;28;20417;-65
2021/08/10 07:45:39;;;;;;;7.50;2.28;;;20.80;65.70;;;;;;10526719;28;20567;-68
2021/08/10 07:51:01;;;;;;;2.17;1.40;;;21.40;64.70;;;;;;10496000;28;20295;-64
2021/08/10 07:56:23;;;;;;;4.23;1.50;;;21.00;65.00;;;;;;10525430;28;20207;-64
2021/08/10 08:01:46;;;;;;;4.23;1.50;;;20.80;64.50;;;;;;10514502;28;20215;-64
2021/08/10 08:07:09;;;;;;;2.70;1.10;;;20.70;64.10;;;;;;10531489;28;20203;-64
2021/08/10 08:12:31;;;;;;;3.63;1.50;;;20.60;65.90;;;;;;10522264;28;20274;-65
2021/08/10 08:17:55;;;;;;;1.83;1.43;;;20.50;65.90;;;;;;10524454;28;20725;-65
2021/08/10 08:23:18;;;;;;;1.80;1.30;;;20.60;65.30;;;;;;10529765;28;20196;-65
2021/08/10 08:28:40;;;;;;;2.00;1.10;;;20.60;65.20;;;;;;10519724;28;20223;-65
2021/08/10 08:34:03;;;;;;;2.30;1.40;;;20.60;64.60;;;;;;10516674;28;20437;-64
2021/08/10 08:39:25;;;;;;;1.70;1.27;;;21.20;63.50;;;;;;10527015;28;20225;-64
2021/08/10 08:44:48;;;;;;;7.23;1.13;;;20.70;65.00;;;;;;10533390;28;20195;-63
2021/08/10 08:50:11;;;;;;;1.70;1.10;;;20.70;65.80;;;;;;10544704;28;20228;-64
2021/08/10 08:55:34;;;;;;;4.67;1.20;;;20.60;65.50;;;;;;10529747;28;20216;-63
2021/08/10 09:00:56;;;;;;;1.40;0.90;;;20.60;64.30;;;;;;10524720;28;20216;-63
2021/08/10 09:06:21;;;;;;;1.40;1.00;;;20.60;65.50;;;;;;10533737;28;20199;-63
2021/08/10 09:11:48;;;;;;;1.63;0.90;;;20.50;65.90;;;;;;10534075;28;20717;-62
2021/08/10 09:17:12;;;;;;;1.80;1.40;;;20.60;65.10;;;;;;10520279;28;20920;-63
2021/08/10 09:22:36;;;;;;;2.30;1.53;;;21.10;64.00;;;;;;10509780;28;20191;-64
2021/08/10 09:28:06;;;;;;;1.20;0.90;;;20.80;65.40;;;;;;10536797;28;20219;-63
2021/08/10 09:33:39;;;;;;;1.70;1.13;;;20.60;64.60;;;;;;10495654;28;20254;-62
2021/08/10 09:39:04;;;;;;;1.30;1.20;;;20.60;64.90;;;;;;10493547;28;20250;-61
2021/08/10 09:44:26;;;;;;;1.20;0.90;;;20.50;65.70;;;;;;10494795;28;20200;-63
2021/08/10 09:49:48;;;;;;;1.23;0.93;;;20.50;65.40;;;;;;10530127;28;20223;-63
2021/08/10 09:55:14;;;;;;;1.57;1.00;;;20.60;64.50;;;;;;10536896;28;20216;-61
2021/08/10 10:00:40;;;;;;;1.57;1.00;;;20.50;65.60;;;;;;10526109;28;20582;-63
2021/08/10 10:06:02;;;;;;;2.20;1.10;;;20.50;66.00;;;;;;10490867;28;20586;-63
2021/08/10 10:11:26;;;;;;;1.03;0.90;;;20.50;65.10;;;;;;10502730;28;20745;-64
2021/08/10 10:16:49;;;;;;;1.90;1.00;;;20.50;66.00;;;;;;10524226;28;20279;-62
2021/08/10 10:22:17;;;;;;;1.67;0.97;;;20.40;66.50;;;;;;10507557;28;20230;-63
2021/08/10 10:27:41;;;;;;;1.53;1.10;;;20.50;65.40;;;;;;10533029;28;20195;-62
2021/08/10 10:33:03;;;;;;;2.20;1.10;;;20.50;64.80;;;;;;10525517;28;20216;-60
2021/08/10 10:38:26;;;;;;;1.77;1.13;;;20.50;65.90;;;;;;10535977;28;20674;-62
2021/08/10 10:43:52;;;;;;;1.20;0.90;;;20.40;66.00;;;;;;10534253;28;20195;-62
2021/08/10 10:49:28;;;;;;;1.10;1.00;;;20.50;65.20;;;;;;10493725;28;20259;-62
2021/08/10 10:54:51;;;;;;;1.50;1.03;;;20.50;65.90;;;;;;10495476;28;20587;-62
2021/08/10 11:00:22;;;;;;;1.53;1.03;;;20.40;66.50;;;;;;10502886;28;20216;-62
2021/08/10 11:05:44;;;;;;;1.37;0.90;;;20.50;65.70;;;;;;10492521;28;20578;-62
2021/08/10 11:11:06;;;;;;;1.27;1.00;;;20.50;65.50;;;;;;10495472;28;20283;-63
2021/08/10 11:17:08;;;;;;;2.30;1.43;;;20.40;66.40;;;;;;10536175;28;20188;-62
2021/08/10 11:22:31;;;;;;;1.20;0.97;;;20.40;65.60;;;;;;10524505;28;20690;-62
2021/08/10 11:27:54;;;;;;;1.53;1.10;;;20.40;64.90;;;;;;10541622;28;20215;-63
2021/08/10 11:33:41;;;;;;;0.83;0.83;;;20.40;65.90;;;;;;10540912;28;20222;-63
2021/08/10 11:39:08;;;;;;;1.10;0.80;;;20.40;66.10;;;;;;10501012;28;20219;-62
2021/08/10 11:44:30;;;;;;;1.20;1.10;;;20.40;65.30;;;;;;10500020;28;20691;-63
2021/08/10 11:49:55;;;;;;;1.23;1.07;;;20.50;65.80;;;;;;10500127;28;20570;-63
2021/08/10 11:55:17;;;;;;;1.33;0.80;;;20.40;66.30;;;;;;10505905;28;20243;-63
2021/08/10 12:00:40;;;;;;;1.57;1.10;;;20.40;65.70;;;;;;10532661;28;20295;-63
2021/08/10 12:06:03;;;;;;;1.37;1.10;;;20.50;64.90;;;;;;10539768;28;20574;-63
2021/08/10 12:11:25;;;;;;;1.50;1.20;;;20.50;66.10;;;;;;10532373;28;20203;-65
2021/08/10 12:16:58;;;;;;;1.50;1.00;;;20.40;66.30;;;;;;10538581;28;20219;-63
2021/08/10 12:22:24;;;;;;;1.25;1.10;;;20.50;65.40;;;;;;10519265;28;20759;-64
2021/08/10 12:27:47;;;;;;;1.87;1.20;;;21.00;64.60;;;;;;10498386;28;20691;-63
2021/08/10 12:33:17;;;;;;;1.80;1.30;;;20.70;65.80;;;;;;10498774;28;20618;-65
2021/08/10 12:38:41;;;;;;;1.50;0.97;;;20.60;65.50;;;;;;10497746;28;20209;-63
2021/08/10 12:44:03;;;;;;;1.80;1.33;;;20.50;66.30;;;;;;10498703;28;20829;-63
2021/08/10 12:49:36;;;;;;;1.40;1.13;;;20.40;66.90;;;;;;10497200;28;20228;-61
2021/08/10 12:55:01;;;;;;;1.20;1.00;;;20.50;66.30;;;;;;10513432;28;20230;-63
2021/08/10 13:00:23;;;;;;;1.30;1.20;;;20.50;66.50;;;;;;10491691;28;20219;-63
2021/08/10 13:05:45;;;;;;;1.37;1.20;;;20.40;66.90;;;;;;10493925;28;20205;-62
2021/08/10 13:11:21;;;;;;;1.23;1.13;;;20.40;66.10;;;;;;10530716;28;20590;-62
2021/08/10 13:16:44;;;;;;;2.03;1.53;;;20.50;66.10;;;;;;10532561;28;20574;-63
2021/08/10 13:22:06;;;;;;;1.97;1.40;;;20.40;66.70;;;;;;10521039;28;20219;-61
2021/08/10 13:27:30;;;;;;;1.63;1.10;;;20.40;66.30;;;;;;10531433;28;20271;-62
2021/08/10 13:33:13;;;;;;;1.70;1.20;;;20.50;65.70;;;;;;10529602;28;20598;-61
2021/08/10 13:38:36;;;;;;;1.60;1.50;;;20.40;66.60;;;;;;10531335;28;20281;-61
2021/08/10 13:44:00;;;;;;;2.10;1.50;;;20.40;66.50;;;;;;10517797;28;20197;-62
2021/08/10 13:49:22;;;;;;;2.50;1.70;;;20.50;65.50;;;;;;10510056;28;20215;-62
2021/08/10 13:54:44;;;;;;;2.30;1.80;;;20.60;66.80;;;;;;10550076;28;20645;-62
2021/08/10 14:00:09;;;;;;;1.90;1.50;;;20.50;67.00;;;;;;10495990;28;20288;-60
2021/08/10 14:05:31;;;;;;;2.40;1.60;;;20.50;66.00;;;;;;10500401;28;20191;-63
2021/08/10 14:10:53;;;;;;;1.97;1.70;;;20.50;66.30;;;;;;10575311;28;20219;-63
2021/08/10 14:16:20;;;;;;;1.97;1.70;;;20.40;66.80;;;;;;10524319;28;20222;-63
2021/08/10 14:21:42;;;;;;;2.77;1.80;;;20.40;66.10;;;;;;10534724;28;20204;-63
2021/08/10 14:27:05;;;;;;;3.80;1.80;;;20.40;66.30;;;;;;10532643;28;20188;-62
2021/08/10 14:32:28;;;;;;;2.50;1.63;;;20.40;66.90;;;;;;10534981;28;20216;-63
2021/08/10 14:37:50;;;;;;;2.63;1.87;;;20.40;66.40;;;;;;10498153;28;20568;-63
2021/08/10 14:43:13;;;;;;;2.17;1.70;;;20.50;67.30;;;;;;10494709;28;20192;-64
2021/08/10 14:48:36;;;;;;;2.10;1.60;;;20.40;67.20;;;;;;10495324;28;20563;-63
2021/08/10 14:53:58;;;;;;;2.20;1.80;;;20.40;66.50;;;;;;10506103;28;20215;-62
2021/08/10 14:59:20;;;;;;;2.23;1.80;;;20.40;66.50;;;;;;10540131;28;20211;-62
2021/08/10 15:04:44;;;;;;;2.43;1.77;;;20.40;67.10;;;;;;10549556;28;20219;-61
2021/08/10 15:10:09;;;;;;;2.27;2.00;;;20.40;66.40;;;;;;10535304;28;20216;-62
2021/08/10 15:15:32;;;;;;;2.43;2.00;;;20.40;66.50;;;;;;10530169;28;20218;-62
2021/08/10 15:20:55;;;;;;;2.83;2.13;;;20.40;67.10;;;;;;10532668;28;20227;-62
2021/08/10 15:26:18;;;;;;;2.20;1.90;;;20.40;66.40;;;;;;10565071;28;20270;-62
2021/08/10 15:31:40;;;;;;;2.53;2.07;;;20.50;65.60;;;;;;10575516;28;20214;-63
2021/08/10 15:37:04;;;;;;;2.23;1.80;;;20.50;65.80;;;;;;10519493;28;20699;-63
2021/08/10 15:42:26;;;;;;;2.90;2.00;;;20.40;66.40;;;;;;10553707;28;20189;-62
2021/08/10 15:47:49;;;;;;;4.10;2.10;;;20.40;66.10;;;;;;10506877;28;20322;-62
2021/08/10 15:53:14;;;;;;;2.50;1.90;;;20.50;65.40;;;;;;10516500;28;20215;-62
2021/08/10 15:58:38;;;;;;;2.20;1.97;;;20.50;64.80;;;;;;10524410;28;20334;-64
2021/08/10 16:04:01;;;;;;;2.77;2.00;;;20.50;66.00;;;;;;10523618;28;20195;-63
2021/08/10 16:09:24;;;;;;;3.70;2.00;;;20.50;66.40;;;;;;10492432;28;20223;-62
2021/08/10 16:14:47;;;;;;;2.20;1.73;;;20.50;65.40;;;;;;10498137;28;20185;-62
2021/08/10 16:20:10;;;;;;;3.17;2.20;;;20.50;64.60;;;;;;10515127;28;20208;-62
2021/08/10 16:25:34;;;;;;;3.08;2.40;;;20.40;65.70;;;;;;10534287;28;20413;-64
2021/08/10 16:30:56;;;;;;;3.97;1.90;;;20.80;65.10;;;;;;10572964;28;20211;-62
2021/08/10 16:36:18;;;;;;;2.43;1.70;;;20.60;64.80;;;;;;10546253;28;20216;-62
2021/08/10 16:41:42;;;;;;;3.22;2.22;;;20.60;64.70;;;;;;10495714;28;20411;-64
2021/08/10 16:47:06;;;;;;;2.07;1.83;;;21.00;64.30;;;;;;10501117;28;20231;-62
2021/08/10 16:52:28;;;;;;;2.70;2.27;;;20.70;65.20;;;;;;10527164;28;20240;-62
2021/08/10 16:57:51;;;;;;;2.10;1.83;;;20.60;64.90;;;;;;10531613;28;20225;-63
2021/08/10 17:03:15;;;;;;;2.03;1.77;;;20.50;64.40;;;;;;10566022;28;20184;-63
2021/08/10 17:08:38;;;;;;;2.53;2.10;;;20.60;65.40;;;;;;10517016;28;20702;-63
2021/08/10 17:14:01;;;;;;;2.50;1.63;;;20.50;66.20;;;;;;10532526;28;20717;-62
2021/08/10 17:19:23;;;;;;;3.63;1.83;;;20.60;65.40;;;;;;10532653;28;20567;-62
2021/08/10 17:24:48;;;;;;;2.47;1.67;;;20.60;64.70;;;;;;10509262;28;20197;-63
2021/08/10 17:30:12;;;;;;;1.93;1.60;;;20.60;64.20;;;;;;10491997;28;20250;-63
2021/08/10 17:35:34;;;;;;;2.30;1.80;;;20.60;63.90;;;;;;10489946;28;20212;-64
2021/08/10 17:40:56;;;;;;;2.03;1.70;;;20.60;64.40;;;;;;10491051;28;20223;-65
2021/08/10 17:46:20;;;;;;;2.83;2.00;;;20.60;65.60;;;;;;10506281;28;20188;-65
2021/08/10 17:51:42;;;;;;;3.50;1.97;;;20.60;65.30;;;;;;10532343;28;20690;-64
2021/08/10 17:57:05;;;;;;;2.00;1.70;;;20.60;64.60;;;;;;10523237;28;20223;-64
2021/08/10 18:02:28;;;;;;;2.67;1.80;;;20.60;64.20;;;;;;10529970;28;20192;-63
2021/08/10 18:07:50;;;;;;;1.83;1.70;;;20.60;63.80;;;;;;10531543;28;20207;-64
2021/08/10 18:13:12;;;;;;;2.27;1.87;;;20.60;64.90;;;;;;10528741;28;20546;-64
2021/08/10 18:18:36;;;;;;;2.30;1.87;;;20.50;65.60;;;;;;10532425;28;20621;-64
2021/08/10 18:24:01;;;;;;;1.90;1.57;;;20.50;64.80;;;;;;10524721;28;20567;-63
2021/08/10 18:29:23;;;;;;;3.00;1.57;;;20.60;64.20;;;;;;10533368;28;20212;-63
2021/08/10 18:34:47;;;;;;;2.30;1.70;;;20.50;65.00;;;;;;10528110;28;20211;-65
2021/08/10 18:40:10;;;;;;;1.87;1.60;;;20.50;65.50;;;;;;10525533;28;20211;-64
2021/08/10 18:45:33;;;;;;;1.70;1.60;;;20.50;65.00;;;;;;10523978;28;20192;-64
2021/08/10 18:50:57;;;;;;;2.30;1.90;;;20.50;64.40;;;;;;10526626;28;20221;-64
2021/08/10 18:56:19;;;;;;;2.00;1.57;;;20.60;64.10;;;;;;10535882;28;20226;-64
2021/08/10 19:01:41;;;;;;;2.13;1.60;;;20.60;64.40;;;;;;10527801;28;20215;-63
2021/08/10 19:07:05;;;;;;;2.50;1.70;;;20.50;65.40;;;;;;10529710;28;20192;-64
2021/08/10 19:12:27;;;;;;;2.50;1.70;;;20.50;65.10;;;;;;10525460;28;20203;-63
2021/08/10 19:17:49;;;;;;;2.95;1.90;;;20.50;64.30;;;;;;10529177;28;20428;-64
2021/08/10 19:23:13;;;;;;;2.17;1.50;;;21.10;63.20;;;;;;10519231;28;20200;-64
2021/08/10 19:28:37;;;;;;;2.40;1.77;;;20.80;64.80;;;;;;10530183;28;20216;-63
2021/08/10 19:33:59;;;;;;;2.43;1.50;;;20.70;64.40;;;;;;10533718;28;20210;-64
2021/08/10 19:39:23;;;;;;;2.70;1.80;;;20.60;64.00;;;;;;10533274;28;20712;-63
2021/08/10 19:44:45;;;;;;;3.03;2.00;;;20.60;65.00;;;;;;10567144;28;20207;-64
2021/08/10 19:50:10;;;;;;;1.90;1.70;;;20.60;65.70;;;;;;10549299;28;20225;-64
2021/08/10 19:55:33;;;;;;;2.67;1.80;;;20.50;65.00;;;;;;10538550;28;20213;-65
2021/08/10 20:00:56;;;;;;;2.27;1.57;;;20.60;64.40;;;;;;10540301;28;20216;-64
2021/08/10 20:06:18;;;;;;;2.63;1.77;;;20.60;65.10;;;;;;10539436;28;20225;-64
2021/08/10 20:11:42;;;;;;;1.97;1.63;;;20.50;65.80;;;;;;10539599;28;20209;-63
2021/08/10 20:17:04;;;;;;;2.63;1.83;;;20.50;65.10;;;;;;10539213;28;20203;-64
2021/08/10 20:22:27;;;;;;;2.20;1.80;;;20.50;64.40;;;;;;10542839;28;20679;-62
2021/08/10 20:27:50;;;;;;;2.37;1.93;;;20.60;65.00;;;;;;10538610;28;20686;-64
2021/08/10 20:33:12;;;;;;;2.00;1.80;;;20.50;65.70;;;;;;10538013;28;20187;-64
2021/08/10 20:38:34;;;;;;;2.10;1.60;;;20.50;65.00;;;;;;10518326;28;20220;-64
2021/08/10 20:43:58;;;;;;;1.97;1.60;;;20.60;64.30;;;;;;10528397;28;20188;-64
2021/08/10 20:49:21;;;;;;;2.57;1.90;;;20.60;65.30;;;;;;10539205;28;20215;-63
2021/08/10 20:54:43;;;;;;;2.43;1.80;;;20.50;65.60;;;;;;10531141;28;20204;-63
2021/08/10 21:00:08;;;;;;;1.73;1.63;;;20.60;64.90;;;;;;10537579;28;20219;-63
2021/08/10 21:05:30;;;;;;;2.33;1.80;;;20.60;65.40;;;;;;10537019;28;20211;-63
2021/08/10 21:10:58;;;;;;;2.33;1.60;;;20.60;66.00;;;;;;10538359;28;20211;-64
2021/08/10 21:16:23;;;;;;;2.30;1.93;;;20.50;65.20;;;;;;10509097;28;20691;-63
2021/08/10 21:21:47;;;;;;;2.03;1.80;;;20.60;64.50;;;;;;10521427;28;20300;-64
2021/08/10 21:27:09;;;;;;;1.73;1.50;;;20.60;65.60;;;;;;10536372;28;20180;-63
2021/08/10 21:32:33;;;;;;;1.70;1.60;;;20.50;65.90;;;;;;10533362;28;20201;-64
2021/08/10 21:37:55;;;;;;;2.43;2.07;;;20.50;65.00;;;;;;10505534;28;20226;-63
2021/08/10 21:43:17;;;;;;;1.93;1.63;;;20.60;65.00;;;;;;10531237;28;20195;-63
2021/08/10 21:48:40;;;;;;;1.93;1.70;;;20.50;65.80;;;;;;10537846;28;20574;-63
2021/08/10 21:54:02;;;;;;;3.93;1.50;;;20.50;65.70;;;;;;10522073;28;20199;-64
2021/08/10 21:59:24;;;;;;;2.33;1.70;;;20.50;64.80;;;;;;10511584;28;20215;-63
2021/08/10 22:04:48;;;;;;;2.23;1.63;;;20.50;65.80;;;;;;10525088;28;20187;-63
2021/08/10 22:10:11;;;;;;;1.87;1.67;;;20.50;66.30;;;;;;10535731;28;20220;-63
2021/08/10 22:15:33;;;;;;;1.87;1.63;;;20.50;65.40;;;;;;10536049;28;20219;-63
2021/08/10 22:20:56;;;;;;;2.50;1.90;;;20.50;64.80;;;;;;10531071;28;20227;-63
2021/08/10 22:26:19;;;;;;;2.20;1.92;;;20.50;65.90;;;;;;10492474;28;20421;-64
2021/08/10 22:31:41;;;;;;;2.30;1.87;;;21.00;64.00;;;;;;10498249;28;20212;-64
2021/08/10 22:37:04;;;;;;;2.17;1.70;;;20.70;63.90;;;;;;10504902;28;20241;-62
2021/08/10 22:42:26;;;;;;;3.60;1.70;;;20.60;65.00;;;;;;10494736;28;20196;-63
2021/08/10 22:47:48;;;;;;;1.57;1.40;;;20.50;65.80;;;;;;10494895;28;20209;-64
2021/08/10 22:53:12;;;;;;;1.90;1.70;;;20.50;65.10;;;;;;10500409;28;20199;-62
2021/08/10 22:58:34;;;;;;;2.07;1.83;;;20.50;64.90;;;;;;10535275;28;20595;-62
2021/08/10 23:03:56;;;;;;;1.83;1.43;;;20.50;65.80;;;;;;10534033;28;20191;-64
2021/08/10 23:09:19;;;;;;;2.00;1.80;;;20.40;65.60;;;;;;10532989;28;20215;-64
2021/08/10 23:14:41;;;;;;;1.70;1.50;;;20.50;65.30;;;;;;10534125;28;20204;-63
2021/08/10 23:20:05;;;;;;;2.13;1.50;;;20.40;66.20;;;;;;10534215;28;20220;-63
2021/08/10 23:25:29;;;;;;;2.23;1.43;;;20.50;66.40;;;;;;10514802;28;20187;-65
2021/08/10 23:30:51;;;;;;;1.50;1.23;;;20.50;65.50;;;;;;10542188;28;20212;-63
2021/08/10 23:36:13;;;;;;;2.20;1.83;;;20.50;65.90;;;;;;10540973;28;20582;-63
2021/08/10 23:41:37;;;;;;;2.00;1.73;;;20.40;66.40;;;;;;10542741;28;20601;-63
2021/08/10 23:46:59;;;;;;;2.73;1.80;;;20.40;65.80;;;;;;10542635;28;20211;-63
2021/08/10 23:52:21;;;;;;;2.57;1.80;;;20.50;65.00;;;;;;10541691;28;20238;-63
2021/08/10 23:57:44;;;;;;;1.90;1.67;;;20.40;66.00;;;;;;10499564;28;20693;-63
